Time;durP1;ratioP1;P1;durP2;ratioP2;P2;SDS_P1;SDS_P2;PMS_P1;PMS_P2;Temp;Humidity;BMP_temperature;BMP_pressure;BME280_temperature;BME280_humidity;BME280_pressure;Samples;Min_cycle;Max_cycle;Signal;HPM_P1;HPM_P2
2022/07/05 00:01:48;;;;;;;0.00;0.00;;;18.80;99.90;;;;;;4991431;28;20433;-73
2022/07/05 00:04:13;;;;;;;0.00;0.00;;;18.80;99.90;;;;;;4992744;28;20030;-73
2022/07/05 00:07:17;;;;;;;0.00;0.00;;;18.60;99.90;;;;;;4992733;28;20030;-73
2022/07/05 00:09:28;;;;;;;0.00;0.00;;;18.40;99.90;;;;;;4992459;28;20482;-73
2022/07/05 00:11:54;;;;;;;0.00;0.00;;;18.20;99.90;;;;;;4992572;28;20026;-73
2022/07/05 00:14:20;;;;;;;0.00;0.00;;;18.20;99.90;;;;;;4992708;28;20022;-73
2022/07/05 00:16:45;;;;;;;0.00;0.00;;;18.30;99.90;;;;;;4991275;28;20117;-73
2022/07/05 00:19:11;;;;;;;0.00;0.00;;;18.40;99.90;;;;;;4992370;28;20074;-73
2022/07/05 00:21:37;;;;;;;0.00;0.00;;;18.50;99.90;;;;;;4992689;28;20041;-73
2022/07/05 00:24:02;;;;;;;0.00;0.00;;;18.40;99.90;;;;;;4991354;28;20026;-73
2022/07/05 00:26:29;;;;;;;0.00;0.00;;;18.40;99.90;;;;;;4991172;28;20057;-74
2022/07/05 00:28:54;;;;;;;0.00;0.00;;;18.70;99.90;;;;;;4992287;28;20034;-73
2022/07/05 00:31:20;;;;;;;0.00;0.00;;;18.60;99.90;;;;;;4991284;28;20044;-73
2022/07/05 00:33:46;;;;;;;0.00;0.00;;;18.70;99.90;;;;;;4992478;28;20061;-73
2022/07/05 00:36:11;;;;;;;0.00;0.00;;;18.70;99.90;;;;;;4991418;28;20068;-73
2022/07/05 00:38:37;;;;;;;0.00;0.00;;;18.90;99.90;;;;;;4992380;28;20050;-73
2022/07/05 00:41:03;;;;;;;0.00;0.00;;;18.90;99.90;;;;;;4974675;28;20124;-74
2022/07/05 00:43:29;;;;;;;0.00;0.00;;;18.70;99.90;;;;;;4974990;28;20038;-73
2022/07/05 00:45:54;;;;;;;4.85;4.50;;;18.60;99.90;;;;;;4992306;28;20034;-74
2022/07/05 00:48:20;;;;;;;4.13;3.75;;;18.40;99.90;;;;;;4990904;28;20052;-73
2022/07/05 00:50:46;;;;;;;0.00;0.00;;;18.40;99.90;;;;;;4990785;28;20169;-73
2022/07/05 00:53:12;;;;;;;0.00;0.00;;;18.50;99.90;;;;;;4991170;28;20466;-73
2022/07/05 00:55:38;;;;;;;0.03;0.03;;;18.50;99.90;;;;;;4992247;28;20398;-73
2022/07/05 00:58:04;;;;;;;0.00;0.00;;;18.30;99.90;;;;;;4992422;28;20102;-73
2022/07/05 01:00:29;;;;;;;0.17;0.17;;;18.20;99.90;;;;;;4992044;28;20031;-73
2022/07/05 01:02:56;;;;;;;0.00;0.00;;;18.00;99.90;;;;;;4990724;28;20042;-73
2022/07/05 01:05:22;;;;;;;0.00;0.00;;;18.00;99.90;;;;;;4975029;28;20030;-74
2022/07/05 01:07:48;;;;;;;0.00;0.00;;;18.00;99.90;;;;;;4990805;28;20092;-73
2022/07/05 01:10:13;;;;;;;0.10;0.10;;;18.10;99.90;;;;;;4995146;28;20031;-73
2022/07/05 01:12:42;;;;;;;0.00;0.00;;;18.20;99.90;;;;;;4995766;28;20073;-74
2022/07/05 01:15:08;;;;;;;0.10;0.10;;;18.10;99.90;;;;;;4994419;28;20023;-73
2022/07/05 01:17:36;;;;;;;0.25;0.25;;;18.10;99.90;;;;;;4978066;28;20537;-73
2022/07/05 01:20:04;;;;;;;0.00;0.00;;;18.00;99.90;;;;;;4994120;28;20018;-73
2022/07/05 01:22:59;;;;;;;0.10;0.10;;;17.90;99.90;;;;;;4994312;28;20026;-73
2022/07/05 01:25:26;;;;;;;0.10;0.10;;;17.90;99.90;;;;;;4985868;28;20069;-73
2022/07/05 01:27:53;;;;;;;0.00;0.00;;;17.80;99.90;;;;;;4995284;28;20023;-73
2022/07/05 01:30:20;;;;;;;0.00;0.00;;;17.70;99.90;;;;;;4995198;28;20027;-74
2022/07/05 01:32:46;;;;;;;0.00;0.00;;;17.80;99.90;;;;;;4994276;28;20022;-73
2022/07/05 01:35:13;;;;;;;0.00;0.00;;;17.90;99.90;;;;;;4994173;28;20381;-73
2022/07/05 01:37:39;;;;;;;0.00;0.00;;;18.00;99.90;;;;;;4994103;28;20030;-73
2022/07/05 01:40:06;;;;;;;0.00;0.00;;;18.20;99.90;;;;;;4993803;28;20022;-73
2022/07/05 01:42:33;;;;;;;0.05;0.05;;;18.10;99.90;;;;;;4993838;28;20018;-73
2022/07/05 01:44:59;;;;;;;0.00;0.00;;;17.80;99.90;;;;;;4977852;28;20390;-73
2022/07/05 01:47:25;;;;;;;0.15;0.15;;;17.70;99.90;;;;;;4995098;28;20035;-73
2022/07/05 01:49:54;;;;;;;0.10;0.10;;;17.50;99.90;;;;;;4993544;28;20030;-73
2022/07/05 01:52:27;;;;;;;0.00;0.00;;;17.40;99.90;;;;;;4993765;28;20026;-73
2022/07/05 01:54:52;;;;;;;0.00;0.00;;;17.40;99.90;;;;;;4993748;28;20019;-74
2022/07/05 01:57:18;;;;;;;0.00;0.00;;;17.50;99.90;;;;;;4994980;28;20441;-73
2022/07/05 01:59:44;;;;;;;0.00;0.00;;;17.70;99.90;;;;;;4993430;28;20047;-73
2022/07/05 02:02:10;;;;;;;0.00;0.00;;;17.90;99.90;;;;;;4993577;28;20034;-73
2022/07/05 02:04:36;;;;;;;0.00;0.00;;;18.10;99.90;;;;;;4993605;28;20030;-73
2022/07/05 02:07:07;;;;;;;0.00;0.00;;;18.20;99.90;;;;;;4993487;28;20026;-73
2022/07/05 02:09:32;;;;;;;0.00;0.00;;;18.30;99.90;;;;;;4994323;28;20049;-74
2022/07/05 02:11:58;;;;;;;0.00;0.00;;;18.40;99.90;;;;;;4993370;28;20458;-73
2022/07/05 02:14:24;;;;;;;0.00;0.00;;;18.30;99.90;;;;;;4993336;28;20113;-73
2022/07/05 02:16:50;;;;;;;0.00;0.00;;;18.10;99.90;;;;;;4993381;28;20463;-73
2022/07/05 02:19:16;;;;;;;0.00;0.00;;;18.00;99.90;;;;;;4976558;28;20026;-73
2022/07/05 02:21:41;;;;;;;0.08;0.08;;;18.00;99.90;;;;;;4993246;28;20033;-74
2022/07/05 02:24:08;;;;;;;0.20;0.20;;;17.80;99.90;;;;;;4992990;28;20026;-74
2022/07/05 02:26:34;;;;;;;0.00;0.00;;;17.70;99.90;;;;;;4977254;28;20482;-74
2022/07/05 02:29:01;;;;;;;0.10;0.10;;;17.50;99.90;;;;;;4976610;28;20031;-74
2022/07/05 02:31:27;;;;;;;0.15;0.15;;;17.30;99.90;;;;;;4993164;28;20092;-74
2022/07/05 02:33:53;;;;;;;0.30;0.30;;;17.30;99.90;;;;;;4994335;28;20031;-74
2022/07/05 02:36:19;;;;;;;0.10;0.10;;;17.20;99.90;;;;;;4994159;28;20018;-73
2022/07/05 02:38:44;;;;;;;0.65;0.65;;;17.10;99.90;;;;;;4993880;28;20027;-73
2022/07/05 02:41:12;;;;;;;0.13;0.13;;;17.00;99.90;;;;;;4976425;28;20109;-74
2022/07/05 02:43:38;;;;;;;0.73;0.25;;;17.00;99.90;;;;;;4992749;28;20026;-73
2022/07/05 02:46:05;;;;;;;0.28;0.15;;;16.90;99.90;;;;;;4994030;28;20398;-74
2022/07/05 02:48:33;;;;;;;0.00;0.00;;;16.90;99.90;;;;;;4993832;28;20030;-74
2022/07/05 02:50:58;;;;;;;0.00;0.00;;;17.00;99.90;;;;;;4976225;28;20022;-73
2022/07/05 02:53:24;;;;;;;0.20;0.20;;;17.10;99.90;;;;;;4993742;28;20026;-74
2022/07/05 02:55:50;;;;;;;0.10;0.10;;;17.20;99.90;;;;;;4992443;28;20490;-73
2022/07/05 02:58:16;;;;;;;0.00;0.00;;;17.30;99.90;;;;;;4992474;28;20049;-73
2022/07/05 03:00:44;;;;;;;0.00;0.00;;;17.20;99.90;;;;;;4993496;28;20475;-73
2022/07/05 03:03:09;;;;;;;0.00;0.00;;;17.20;99.90;;;;;;4992430;28;20030;-73
2022/07/05 03:05:35;;;;;;;0.03;0.03;;;17.20;99.90;;;;;;4993610;28;20367;-74
2022/07/05 03:08:01;;;;;;;0.00;0.00;;;17.30;99.90;;;;;;4992260;28;20525;-74
2022/07/05 03:10:27;;;;;;;0.00;0.00;;;17.40;99.90;;;;;;4992093;28;20026;-73
2022/07/05 03:12:52;;;;;;;0.00;0.00;;;17.40;99.90;;;;;;4993695;28;20026;-73
2022/07/05 03:15:18;;;;;;;0.15;0.15;;;17.40;99.90;;;;;;4992185;28;20053;-74
2022/07/05 03:17:44;;;;;;;0.00;0.00;;;17.40;99.90;;;;;;4993778;28;20018;-74
2022/07/05 03:20:10;;;;;;;0.00;0.00;;;17.40;99.90;;;;;;4993268;28;20060;-73
2022/07/05 03:22:36;;;;;;;0.13;0.13;;;17.30;99.90;;;;;;4975756;28;20030;-74
2022/07/05 03:25:02;;;;;;;0.00;0.00;;;17.20;99.90;;;;;;4992058;28;20026;-73
2022/07/05 03:27:28;;;;;;;0.00;0.00;;;17.30;99.90;;;;;;4992220;28;20057;-73
2022/07/05 03:29:54;;;;;;;0.00;0.00;;;17.20;99.90;;;;;;4991788;28;20049;-74
2022/07/05 03:32:20;;;;;;;0.00;0.00;;;17.30;99.90;;;;;;4991280;28;20452;-73
2022/07/05 03:34:45;;;;;;;0.00;0.00;;;17.30;99.90;;;;;;4991934;28;20056;-73
2022/07/05 03:37:11;;;;;;;0.00;0.00;;;17.30;99.90;;;;;;4993005;28;20101;-73
2022/07/05 03:39:37;;;;;;;0.10;0.10;;;17.30;99.90;;;;;;4993013;28;20026;-73
2022/07/05 03:42:03;;;;;;;0.05;0.05;;;17.20;99.90;;;;;;4991774;28;20022;-74
2022/07/05 03:44:31;;;;;;;0.00;0.00;;;17.20;99.90;;;;;;4993104;28;20076;-74
2022/07/05 03:46:57;;;;;;;0.00;0.00;;;17.10;99.90;;;;;;4975380;28;20041;-74
2022/07/05 03:49:23;;;;;;;0.08;0.08;;;17.00;99.90;;;;;;5020366;23;20516;-74
2022/07/05 03:51:48;;;;;;;0.13;0.13;;;16.90;99.90;;;;;;5012258;28;20030;-74
2022/07/05 03:54:14;;;;;;;0.43;0.30;;;17.00;99.90;;;;;;5012506;28;20492;-74
2022/07/05 03:56:40;;;;;;;0.00;0.00;;;16.90;99.90;;;;;;5012440;28;20026;-74
2022/07/05 03:59:06;;;;;;;0.00;0.00;;;16.80;99.90;;;;;;5011158;28;20500;-75
2022/07/05 04:01:32;;;;;;;0.00;0.00;;;17.00;99.90;;;;;;5011119;28;20396;-74
2022/07/05 04:03:57;;;;;;;0.00;0.00;;;17.10;99.90;;;;;;5012397;28;20105;-74
2022/07/05 04:06:23;;;;;;;0.00;0.00;;;17.20;99.90;;;;;;5012206;28;20061;-74
2022/07/05 04:08:49;;;;;;;0.00;0.00;;;17.40;99.90;;;;;;5012215;28;20033;-74
2022/07/05 04:11:15;;;;;;;0.00;0.00;;;17.50;99.90;;;;;;5012088;28;20076;-74
2022/07/05 04:13:41;;;;;;;0.00;0.00;;;17.50;99.90;;;;;;5012318;28;20036;-75
2022/07/05 04:16:07;;;;;;;0.00;0.00;;;17.50;99.90;;;;;;5010994;28;20025;-75
2022/07/05 04:18:33;;;;;;;1.13;0.30;;;17.60;99.90;;;;;;5012153;28;20030;-74
2022/07/05 04:20:59;;;;;;;0.00;0.00;;;17.60;99.90;;;;;;5011935;28;20018;-74
2022/07/05 04:23:25;;;;;;;0.10;0.10;;;17.60;99.90;;;;;;5010873;28;20057;-74
2022/07/05 04:25:50;;;;;;;0.03;0.03;;;17.70;99.90;;;;;;5012137;28;20022;-74
2022/07/05 04:28:16;;;;;;;0.10;0.10;;;17.70;99.90;;;;;;5010971;28;20080;-74
2022/07/05 04:30:42;;;;;;;0.00;0.00;;;17.80;99.90;;;;;;5011806;28;20065;-74
2022/07/05 04:33:08;;;;;;;0.00;0.00;;;18.00;99.90;;;;;;5012151;28;20018;-74
2022/07/05 04:35:34;;;;;;;0.00;0.00;;;18.10;99.90;;;;;;5011983;28;20026;-74
2022/07/05 04:37:59;;;;;;;0.00;0.00;;;18.10;99.90;;;;;;5011893;28;20022;-74
2022/07/05 04:40:25;;;;;;;0.15;0.15;;;18.10;99.90;;;;;;5011767;28;20033;-74
2022/07/05 04:42:51;;;;;;;0.00;0.00;;;18.30;99.90;;;;;;5012050;28;20030;-75
2022/07/05 04:45:17;;;;;;;0.10;0.10;;;18.40;99.90;;;;;;5015832;28;20393;-75
2022/07/05 04:47:43;;;;;;;0.00;0.00;;;18.40;99.90;;;;;;5014478;28;20081;-75
2022/07/05 04:50:09;;;;;;;0.75;0.22;;;18.30;99.90;;;;;;5013967;28;20441;-74
2022/07/05 04:52:34;;;;;;;0.00;0.00;;;18.20;99.90;;;;;;5014327;28;20061;-75
2022/07/05 04:55:00;;;;;;;0.00;0.00;;;18.20;99.90;;;;;;5015478;28;20052;-74
2022/07/05 04:57:26;;;;;;;0.00;0.00;;;18.20;99.90;;;;;;5015370;28;20014;-75
2022/07/05 04:59:52;;;;;;;0.10;0.10;;;18.10;99.90;;;;;;5015209;28;20020;-74
2022/07/05 05:02:18;;;;;;;0.00;0.00;;;18.10;99.90;;;;;;5015458;28;20034;-74
2022/07/05 05:04:44;;;;;;;0.00;0.00;;;18.10;99.90;;;;;;5013988;28;20021;-75
2022/07/05 05:07:09;;;;;;;0.45;0.45;;;18.20;99.90;;;;;;5014110;28;20053;-74
2022/07/05 05:09:36;;;;;;;0.08;0.08;;;18.00;99.90;;;;;;5015320;28;20022;-74
2022/07/05 05:12:02;;;;;;;0.00;0.00;;;17.90;99.90;;;;;;5006603;28;20022;-74
2022/07/05 05:14:27;;;;;;;0.00;0.00;;;17.90;99.90;;;;;;4996207;28;20041;-74
2022/07/05 05:16:53;;;;;;;0.00;0.00;;;18.00;99.90;;;;;;5004121;28;20018;-75
2022/07/05 05:19:19;;;;;;;0.08;0.08;;;18.20;99.90;;;;;;5006994;28;20505;-75
2022/07/05 05:21:45;;;;;;;0.00;0.00;;;18.40;99.90;;;;;;5014073;28;20079;-75
2022/07/05 05:24:10;;;;;;;0.10;0.10;;;18.60;99.90;;;;;;5004836;28;20413;-76
2022/07/05 05:26:36;;;;;;;0.10;0.10;;;18.70;99.90;;;;;;5009652;28;20071;-76
2022/07/05 05:29:02;;;;;;;0.05;0.05;;;18.90;99.90;;;;;;4991835;28;20046;-76
2022/07/05 05:31:28;;;;;;;0.10;0.10;;;18.70;99.90;;;;;;4992744;28;20711;-75
2022/07/05 05:33:53;;;;;;;0.00;0.00;;;18.60;99.90;;;;;;4998445;28;20533;-73
2022/07/05 05:36:19;;;;;;;0.10;0.10;;;18.50;99.90;;;;;;4997147;28;20062;-74
2022/07/05 05:38:45;;;;;;;0.00;0.00;;;18.20;99.90;;;;;;4997453;28;20108;-74
2022/07/05 05:41:10;;;;;;;0.00;0.00;;;18.30;99.90;;;;;;4998329;28;20373;-74
2022/07/05 05:43:36;;;;;;;0.10;0.10;;;18.50;99.90;;;;;;4998128;28;20062;-74
2022/07/05 05:46:03;;;;;;;0.10;0.10;;;18.70;99.90;;;;;;4993777;28;20040;-74
2022/07/05 05:48:29;;;;;;;0.10;0.10;;;18.80;99.90;;;;;;4998452;28;20080;-75
2022/07/05 05:50:58;;;;;;;0.10;0.10;;;19.00;99.90;;;;;;4992546;28;20022;-73
2022/07/05 05:53:24;;;;;;;1.85;1.17;;;18.90;99.90;;;;;;4997928;28;20033;-74
2022/07/05 05:55:50;;;;;;;0.10;0.10;;;18.80;99.90;;;;;;4990974;28;20023;-75
2022/07/05 05:58:17;;;;;;;0.13;0.13;;;18.90;99.90;;;;;;4999345;28;20061;-76
2022/07/05 06:00:44;;;;;;;0.17;0.17;;;19.00;99.90;;;;;;4980930;28;20491;-76
2022/07/05 06:03:10;;;;;;;0.10;0.10;;;18.80;99.90;;;;;;5000872;28;20058;-75
2022/07/05 06:05:36;;;;;;;0.03;0.03;;;18.90;99.90;;;;;;4998567;28;20642;-75
2022/07/05 06:08:02;;;;;;;0.00;0.00;;;18.90;99.90;;;;;;4980858;28;20099;-75
2022/07/05 06:10:30;;;;;;;0.68;0.40;;;18.90;99.90;;;;;;4997610;28;20122;-75
2022/07/05 06:12:58;;;;;;;0.10;0.10;;;18.90;99.90;;;;;;4998951;28;20064;-76
2022/07/05 06:15:23;;;;;;;0.00;0.00;;;19.00;99.90;;;;;;4997754;28;20026;-76
2022/07/05 06:17:50;;;;;;;0.20;0.20;;;19.30;99.90;;;;;;4997444;28;20091;-76
2022/07/05 06:20:23;;;;;;;0.00;0.00;;;19.50;99.90;;;;;;4996256;28;20034;-75
2022/07/05 06:22:50;;;;;;;0.00;0.00;;;19.50;99.90;;;;;;4997236;28;20050;-75
2022/07/05 06:25:16;;;;;;;0.05;0.05;;;19.50;99.90;;;;;;4996221;28;20026;-75
2022/07/05 06:27:45;;;;;;;0.60;0.50;;;19.50;99.90;;;;;;4995576;28;20498;-75
2022/07/05 06:30:14;;;;;;;0.20;0.20;;;19.30;99.90;;;;;;4999252;28;20026;-75
2022/07/05 06:32:43;;;;;;;0.13;0.13;;;19.30;99.90;;;;;;4997152;28;20026;-75
2022/07/05 06:35:09;;;;;;;0.20;0.20;;;19.30;99.90;;;;;;4994382;28;20406;-75
2022/07/05 06:37:47;;;;;;;0.17;0.17;;;19.20;99.90;;;;;;4996617;28;20109;-76
2022/07/05 06:40:23;;;;;;;0.00;0.00;;;19.30;99.90;;;;;;4994095;28;20482;-75
2022/07/05 06:42:54;;;;;;;0.38;0.38;;;19.50;99.90;;;;;;5000243;28;20062;-77
2022/07/05 06:45:20;;;;;;;0.00;0.00;;;19.40;99.90;;;;;;4998164;28;20063;-76
2022/07/05 06:48:04;;;;;;;0.10;0.10;;;19.40;99.90;;;;;;4997206;28;20486;-76
2022/07/05 06:50:38;;;;;;;0.85;0.40;;;19.50;99.90;;;;;;4995775;28;20037;-75
2022/07/05 06:53:05;;;;;;;0.03;0.03;;;19.40;99.90;;;;;;4996257;28;20423;-76
2022/07/05 06:55:32;;;;;;;0.00;0.00;;;19.60;99.90;;;;;;4996910;28;20549;-76
2022/07/05 06:58:00;;;;;;;0.17;0.17;;;19.80;99.90;;;;;;4996206;28;20481;-74
2022/07/05 07:00:26;;;;;;;0.10;0.10;;;19.90;99.90;;;;;;4997133;28;20501;-76
2022/07/05 07:02:52;;;;;;;0.10;0.10;;;20.00;99.90;;;;;;4992856;28;20023;-77
2022/07/05 07:05:18;;;;;;;0.10;0.10;;;19.90;99.90;;;;;;4993137;28;20908;-76
2022/07/05 07:10:28;;;;;;;0.10;0.10;;;20.10;99.90;;;;;;4992927;28;20049;-77
2022/07/05 07:12:54;;;;;;;0.10;0.10;;;20.40;99.90;;;;;;4992080;28;20467;-77
2022/07/05 07:15:20;;;;;;;0.10;0.10;;;20.70;99.90;;;;;;4991197;28;20593;-77
2022/07/05 07:17:45;;;;;;;0.10;0.10;;;20.80;99.90;;;;;;4993225;28;20034;-77
2022/07/05 07:20:11;;;;;;;0.20;0.20;;;20.80;99.90;;;;;;4995237;28;20053;-76
2022/07/05 07:22:37;;;;;;;0.00;0.00;;;20.70;99.90;;;;;;4993450;28;20156;-77
2022/07/05 07:25:05;;;;;;;0.08;0.08;;;20.60;99.90;;;;;;4994270;28;20233;-77
2022/07/05 07:27:31;;;;;;;1.00;0.75;;;20.70;99.90;;;;;;4991530;28;20038;-78
2022/07/05 07:29:57;;;;;;;0.45;0.45;;;21.00;99.90;;;;;;4976260;28;20076;-75
2022/07/05 07:32:22;;;;;;;0.05;0.05;;;21.20;99.90;;;;;;4991944;28;20038;-78
2022/07/05 07:34:48;;;;;;;0.80;0.80;;;21.20;99.90;;;;;;4994795;28;20473;-77
2022/07/05 07:37:14;;;;;;;2.10;1.85;;;21.00;99.90;;;;;;4993700;28;20026;-76
2022/07/05 07:39:40;;;;;;;0.10;0.10;;;21.00;99.90;;;;;;4993713;28;20086;-76
2022/07/05 07:42:09;;;;;;;0.00;0.00;;;21.30;99.90;;;;;;4994873;28;20532;-77
2022/07/05 07:44:35;;;;;;;0.17;0.17;;;21.10;99.90;;;;;;4993000;28;20041;-76
2022/07/05 07:47:00;;;;;;;0.00;0.00;;;21.20;99.90;;;;;;4991038;28;20034;-76
2022/07/05 07:49:26;;;;;;;1.88;1.38;;;21.10;99.90;;;;;;4991346;28;20052;-74
2022/07/05 07:51:52;;;;;;;0.20;0.20;;;21.10;99.90;;;;;;4991488;28;20521;-76
2022/07/05 07:54:18;;;;;;;0.20;0.20;;;20.90;99.90;;;;;;4994146;28;20028;-76
2022/07/05 07:56:44;;;;;;;0.10;0.10;;;20.90;99.90;;;;;;4995929;28;20030;-77
2022/07/05 07:59:10;;;;;;;0.30;0.30;;;21.00;99.90;;;;;;4976193;28;20030;-77
2022/07/05 08:01:36;;;;;;;0.98;0.98;;;20.90;99.90;;;;;;4992488;28;20037;-76
2022/07/05 08:04:02;;;;;;;1.15;0.57;;;20.80;99.90;;;;;;4995244;28;20042;-76
2022/07/05 08:06:29;;;;;;;0.00;0.00;;;20.90;99.90;;;;;;4991994;28;20394;-77
2022/07/05 08:08:56;;;;;;;0.10;0.10;;;21.00;99.90;;;;;;4996757;28;20705;-77
2022/07/05 08:11:22;;;;;;;0.03;0.03;;;21.20;99.90;;;;;;4993890;28;20052;-76
2022/07/05 08:13:47;;;;;;;0.10;0.10;;;21.50;99.90;;;;;;4995351;28;20021;-77
2022/07/05 08:16:14;;;;;;;0.03;0.03;;;21.50;99.90;;;;;;4977377;28;20018;-73
2022/07/05 08:21:37;;;;;;;3.45;2.65;;;21.20;99.90;;;;;;4995523;28;20089;-73
2022/07/05 08:24:12;;;;;;;0.10;0.10;;;21.10;99.90;;;;;;4994002;28;20034;-75
2022/07/05 08:26:39;;;;;;;0.32;0.32;;;21.50;99.90;;;;;;4992471;28;20046;-72
2022/07/05 08:29:07;;;;;;;0.38;0.38;;;21.90;99.90;;;;;;4991064;28;20104;-73
2022/07/05 08:31:40;;;;;;;0.03;0.03;;;22.40;99.90;;;;;;4995285;28;20037;-73
2022/07/05 08:34:06;;;;;;;0.15;0.15;;;22.50;99.90;;;;;;4994232;28;20031;-73
2022/07/05 08:36:31;;;;;;;0.60;0.60;;;22.40;99.90;;;;;;4976889;28;20367;-73
2022/07/05 08:38:57;;;;;;;0.32;0.32;;;22.10;99.90;;;;;;4977431;28;21100;-73
2022/07/05 08:41:23;;;;;;;0.10;0.10;;;21.90;99.90;;;;;;4995360;28;20041;-74
2022/07/05 08:43:51;;;;;;;0.40;0.40;;;21.80;99.90;;;;;;4993915;28;20882;-73
2022/07/05 08:46:17;;;;;;;0.08;0.08;;;21.90;99.90;;;;;;4994781;28;20505;-74
2022/07/05 08:48:47;;;;;;;0.03;0.03;;;22.40;99.90;;;;;;4994210;28;20034;-73
2022/07/05 08:51:26;;;;;;;21.35;1.75;;;22.20;99.90;;;;;;4994230;28;20325;-73
2022/07/05 08:53:53;;;;;;;0.00;0.00;;;22.00;99.90;;;;;;4993920;28;20437;-74
2022/07/05 08:56:19;;;;;;;0.13;0.13;;;22.00;99.90;;;;;;4992105;28;20418;-73
2022/07/05 08:58:45;;;;;;;0.80;0.77;;;22.40;99.90;;;;;;4991941;28;20034;-73
2022/07/05 09:01:13;;;;;;;0.00;0.00;;;22.40;99.90;;;;;;4994304;28;20066;-73
2022/07/05 09:03:50;;;;;;;0.13;0.13;;;22.80;99.90;;;;;;4991075;28;20026;-73
2022/07/05 09:06:17;;;;;;;0.15;0.15;;;22.90;99.90;;;;;;4993446;28;20117;-73
2022/07/05 09:08:45;;;;;;;0.00;0.00;;;23.50;99.90;;;;;;4993242;28;20092;-74
2022/07/05 09:11:16;;;;;;;0.52;0.52;;;24.20;99.90;;;;;;4994776;28;20124;-73
2022/07/05 09:13:49;;;;;;;0.47;0.47;;;24.70;99.90;;;;;;4973053;28;20525;-73
2022/07/05 09:16:15;;;;;;;0.00;0.00;;;24.50;99.90;;;;;;4994995;28;20947;-73
2022/07/05 09:18:49;;;;;;;0.00;0.00;;;23.70;99.90;;;;;;4995009;28;20034;-73
2022/07/05 09:21:16;;;;;;;0.30;0.30;;;23.70;99.90;;;;;;4994173;28;20550;-73
2022/07/05 09:23:44;;;;;;;0.85;0.38;;;23.20;99.90;;;;;;4992768;28;20038;-73
2022/07/05 09:26:10;;;;;;;0.10;0.10;;;23.00;99.90;;;;;;4994775;28;20057;-74
2022/07/05 09:28:36;;;;;;;0.35;0.35;;;22.70;99.90;;;;;;4991160;28;20053;-73
2022/07/05 09:31:02;;;;;;;0.20;0.20;;;22.60;99.90;;;;;;4975370;28;20034;-73
2022/07/05 09:33:28;;;;;;;0.20;0.20;;;22.90;99.90;;;;;;4993842;28;20437;-72
2022/07/05 09:35:57;;;;;;;0.10;0.10;;;23.40;99.90;;;;;;4991613;28;20041;-76
2022/07/05 09:38:24;;;;;;;2.10;1.35;;;23.40;99.90;;;;;;4992291;28;20028;-73
2022/07/05 09:40:58;;;;;;;4.85;2.08;;;22.90;99.90;;;;;;4990862;28;20521;-74
2022/07/05 09:43:26;;;;;;;0.00;0.00;;;22.60;99.90;;;;;;4993931;28;20030;-74
2022/07/05 09:45:58;;;;;;;0.45;0.45;;;22.70;99.90;;;;;;4994535;28;20080;-74
2022/07/05 09:48:25;;;;;;;0.00;0.00;;;22.80;99.90;;;;;;4992435;28;20038;-74
2022/07/05 09:50:51;;;;;;;2.20;1.17;;;22.80;99.90;;;;;;4991235;28;20029;-74
2022/07/05 09:53:20;;;;;;;0.03;0.03;;;22.80;99.90;;;;;;4992646;28;20959;-74
2022/07/05 09:56:01;;;;;;;0.88;0.88;;;22.70;99.90;;;;;;4989705;28;20030;-72
2022/07/05 09:58:27;;;;;;;0.28;0.28;;;22.30;99.90;;;;;;4993470;28;20018;-73
2022/07/05 10:00:53;;;;;;;0.20;0.20;;;22.40;99.90;;;;;;4993560;28;20093;-74
2022/07/05 10:03:18;;;;;;;1.20;0.80;;;22.50;99.90;;;;;;4993683;28;20034;-74
2022/07/05 10:05:44;;;;;;;0.10;0.10;;;22.50;99.90;;;;;;4999066;28;20025;-74
2022/07/05 10:08:12;;;;;;;0.15;0.15;;;22.40;99.90;;;;;;4998064;28;20030;-74
2022/07/05 10:10:39;;;;;;;0.38;0.38;;;22.30;99.90;;;;;;4997873;28;20037;-74
2022/07/05 10:13:06;;;;;;;0.65;0.65;;;22.20;99.90;;;;;;5000812;28;20018;-74
2022/07/05 10:15:34;;;;;;;0.38;0.38;;;22.30;99.90;;;;;;5002461;28;20069;-73
2022/07/05 10:18:19;;;;;;;0.20;0.20;;;22.30;99.90;;;;;;5006476;28;20470;-74
2022/07/05 10:20:46;;;;;;;0.10;0.10;;;22.20;99.90;;;;;;5000183;28;20029;-74
2022/07/05 10:23:14;;;;;;;0.30;0.30;;;22.30;99.90;;;;;;5000887;28;20038;-74
2022/07/05 10:25:42;;;;;;;0.55;0.55;;;22.40;99.90;;;;;;4997916;28;20494;-75
2022/07/05 10:28:10;;;;;;;0.00;0.00;;;22.50;99.90;;;;;;5000396;28;20030;-73
2022/07/05 10:30:36;;;;;;;0.43;0.22;;;22.30;99.90;;;;;;4993850;28;20041;-73
2022/07/05 10:33:03;;;;;;;2.13;1.20;;;22.40;99.90;;;;;;4996041;28;20065;-74
2022/07/05 10:35:30;;;;;;;0.28;0.20;;;22.30;99.90;;;;;;4997666;28;20030;-74
2022/07/05 10:37:57;;;;;;;0.10;0.10;;;22.30;99.90;;;;;;5002407;28;20025;-73
2022/07/05 10:40:23;;;;;;;0.95;0.90;;;23.00;99.90;;;;;;4997126;28;20019;-74
2022/07/05 10:42:55;;;;;;;0.17;0.17;;;23.70;99.90;;;;;;4997054;28;20026;-74
2022/07/05 10:45:36;;;;;;;0.10;0.10;;;23.70;99.90;;;;;;4995445;28;20026;-74
2022/07/05 10:48:21;;;;;;;0.20;0.20;;;24.30;99.90;;;;;;4998226;28;20041;-75
2022/07/05 10:51:07;;;;;;;0.70;0.70;;;24.50;99.90;;;;;;5000835;28;20033;-74
2022/07/05 10:53:36;;;;;;;0.88;0.88;;;24.60;99.90;;;;;;4998906;28;20025;-74
2022/07/05 10:56:04;;;;;;;0.40;0.40;;;24.50;99.90;;;;;;5000944;28;20839;-74
2022/07/05 10:58:39;;;;;;;0.00;0.00;;;24.00;99.90;;;;;;4996280;28;20489;-75
2022/07/05 11:01:20;;;;;;;0.73;0.65;;;23.60;99.90;;;;;;4994217;28;20026;-74
2022/07/05 11:04:06;;;;;;;0.00;0.00;;;23.40;99.90;;;;;;5000236;28;20037;-73
2022/07/05 11:06:39;;;;;;;0.10;0.10;;;23.50;99.90;;;;;;4998518;28;20103;-74
2022/07/05 11:09:11;;;;;;;0.00;0.00;;;23.40;99.90;;;;;;4999146;28;20053;-74
2022/07/05 11:11:42;;;;;;;2.30;2.05;;;23.40;99.90;;;;;;4996831;28;20026;-74
2022/07/05 11:14:20;;;;;;;0.10;0.10;;;23.10;99.90;;;;;;4996616;28;20018;-74
2022/07/05 11:16:46;;;;;;;0.20;0.20;;;22.80;99.90;;;;;;4996517;28;20497;-74
2022/07/05 11:19:18;;;;;;;0.10;0.10;;;22.80;99.90;;;;;;4993912;28;20466;-74
2022/07/05 11:22:04;;;;;;;0.57;0.57;;;22.60;99.90;;;;;;4994299;28;20062;-75
2022/07/05 11:24:35;;;;;;;0.17;0.17;;;22.60;99.90;;;;;;4995331;28;20041;-74
2022/07/05 11:27:03;;;;;;;0.50;0.47;;;23.50;99.90;;;;;;4991751;28;20031;-75
2022/07/05 11:29:48;;;;;;;0.05;0.05;;;24.60;99.90;;;;;;4993023;28;20065;-74
2022/07/05 11:32:20;;;;;;;5.97;1.13;;;25.00;98.20;;;;;;4994592;28;20050;-74
2022/07/05 11:34:52;;;;;;;0.30;0.30;;;25.10;94.60;;;;;;4993096;28;20033;-74
2022/07/05 11:37:24;;;;;;;0.22;0.22;;;25.10;94.70;;;;;;4996056;28;20154;-73
2022/07/05 11:40:11;;;;;;;0.00;0.00;;;24.80;96.00;;;;;;4992891;28;20042;-73
2022/07/05 11:42:46;;;;;;;0.00;0.00;;;24.50;97.00;;;;;;5056468;23;20060;-72
2022/07/05 11:45:12;;;;;;;0.00;0.00;;;24.40;97.00;;;;;;4990500;28;20385;-73
2022/07/05 11:47:39;;;;;;;0.40;0.40;;;24.20;98.80;;;;;;4989574;28;20031;-72
2022/07/05 11:50:05;;;;;;;0.00;0.00;;;23.70;99.20;;;;;;4975337;28;20026;-74
2022/07/05 11:52:33;;;;;;;0.00;0.00;;;23.70;99.90;;;;;;4989308;28;20037;-73
2022/07/05 11:55:01;;;;;;;0.00;0.00;;;23.70;99.60;;;;;;4991077;28;20120;-75
2022/07/05 11:57:27;;;;;;;0.00;0.00;;;23.90;99.40;;;;;;4991637;28;20030;-75
2022/07/05 11:59:53;;;;;;;0.00;0.00;;;23.70;98.50;;;;;;4990188;28;20026;-73
2022/07/05 12:02:19;;;;;;;0.20;0.20;;;23.40;98.70;;;;;;4998211;28;20046;-78
2022/07/05 12:04:53;;;;;;;0.50;0.47;;;23.20;97.50;;;;;;4996314;28;20028;-78
2022/07/05 12:07:37;;;;;;;0.10;0.10;;;23.20;97.40;;;;;;4994125;28;20537;-76
2022/07/05 12:12:48;;;;;;;0.00;0.00;;;23.30;97.20;;;;;;4996723;28;20664;-76
2022/07/05 12:15:16;;;;;;;0.30;0.30;;;23.30;97.00;;;;;;4979987;28;20048;-78
2022/07/05 12:17:44;;;;;;;0.00;0.00;;;23.10;96.90;;;;;;4994366;28;20058;-78
2022/07/05 12:20:13;;;;;;;0.05;0.05;;;23.00;97.00;;;;;;4997005;28;20077;-77
2022/07/05 12:22:44;;;;;;;0.00;0.00;;;23.00;97.80;;;;;;4995769;28;20030;-77
2022/07/05 12:25:19;;;;;;;0.10;0.10;;;23.00;98.30;;;;;;4992978;28;20841;-77
2022/07/05 12:27:50;;;;;;;0.00;0.00;;;23.00;99.20;;;;;;4979662;28;20038;-77
2022/07/05 12:30:16;;;;;;;0.35;0.35;;;22.80;99.90;;;;;;4996173;28;20061;-77
2022/07/05 12:33:05;;;;;;;0.88;0.57;;;22.90;99.90;;;;;;4996678;28;20038;-76
2022/07/05 12:35:32;;;;;;;0.10;0.10;;;22.80;99.90;;;;;;4997943;28;20030;-76
2022/07/05 12:38:14;;;;;;;0.57;0.57;;;22.70;99.90;;;;;;5009653;28;20030;-78
2022/07/05 12:40:42;;;;;;;0.10;0.10;;;22.70;99.90;;;;;;4997016;28;20045;-76
2022/07/05 12:43:13;;;;;;;0.00;0.00;;;22.60;99.90;;;;;;4978037;28;20418;-75
2022/07/05 12:45:41;;;;;;;0.00;0.00;;;22.50;99.90;;;;;;4977473;28;20030;-78
2022/07/05 12:48:09;;;;;;;0.38;0.20;;;22.50;99.90;;;;;;4992164;28;20119;-76
2022/07/05 12:50:53;;;;;;;0.60;0.55;;;22.50;99.90;;;;;;4995563;28;20056;-77
2022/07/05 12:59:00;;;;;;;0.10;0.10;;;22.20;99.90;;;;;;4992207;28;20576;-76
2022/07/05 13:01:34;;;;;;;0.00;0.00;;;22.50;99.90;;;;;;4993412;28;20037;-78
2022/07/05 13:04:14;;;;;;;0.50;0.50;;;22.90;99.90;;;;;;4978400;28;20029;-78
2022/07/05 13:06:42;;;;;;;0.10;0.10;;;23.20;99.90;;;;;;4999214;28;20090;-77